Time;durP1;ratioP1;P1;durP2;ratioP2;P2;SDS_P1;SDS_P2;PMS_P1;PMS_P2;Temp;Humidity;BMP_temperature;BMP_pressure;BME280_temperature;BME280_humidity;BME280_pressure;Samples;Min_cycle;Max_cycle;Signal;HPM_P1;HPM_P2
2023/02/06 00:02:50;;;;;;;19.00;6.33;;;;;;;;;;6217020;23;20166;-90
2023/02/06 00:05:59;;;;;;;15.20;5.93;;;;;;;;;;6216657;23;20171;-91
2023/02/06 00:09:04;;;;;;;16.30;6.53;;;;;;;;;;6217839;23;20171;-89
2023/02/06 00:12:13;;;;;;;15.47;5.70;;;;;;;;;;6215935;23;20167;-90
2023/02/06 00:15:19;;;;;;;14.07;6.33;;;;;;;;;;6234244;23;20155;-88
2023/02/06 00:18:40;;;;;;;13.90;5.50;;;;;;;;;;6216540;23;20499;-90
2023/02/06 00:21:47;;;;;;;14.90;6.03;;;;;;;;;;6216801;23;20159;-89
2023/02/06 00:24:52;;;;;;;12.73;5.80;;;;;;;;;;6217014;23;20198;-90
2023/02/06 00:27:58;;;;;;;11.67;5.17;;;;;;;;;;6216104;23;20175;-89
2023/02/06 00:31:05;;;;;;;16.73;6.63;;;;;;;;;;6215142;23;20176;-88
2023/02/06 00:34:11;;;;;;;11.83;5.20;;;;;;;;;;6214230;23;20237;-90
2023/02/06 00:37:20;;;;;;;12.20;5.37;;;;;;;;;;6214770;23;20206;-90
2023/02/06 00:40:25;;;;;;;15.43;6.33;;;;;;;;;;6213848;23;20226;-89
2023/02/06 00:43:32;;;;;;;15.93;6.63;;;;;;;;;;6213706;23;20199;-91
2023/02/06 00:46:37;;;;;;;11.80;5.50;;;;;;;;;;6213401;23;20171;-88
2023/02/06 00:49:42;;;;;;;14.37;6.77;;;;;;;;;;6214905;23;20171;-87
2023/02/06 00:52:48;;;;;;;14.37;6.17;;;;;;;;;;6215155;23;20167;-89
2023/02/06 00:55:53;;;;;;;17.67;4.90;;;;;;;;;;6215192;23;20171;-91
2023/02/06 00:59:00;;;;;;;14.40;6.33;;;;;;;;;;6213977;23;20207;-88
2023/02/06 01:02:13;;;;;;;13.17;5.97;;;;;;;;;;6213169;23;20171;-91
2023/02/06 01:05:19;;;;;;;20.23;6.47;;;;;;;;;;6214441;23;20179;-88
2023/02/06 01:08:26;;;;;;;11.03;5.50;;;;;;;;;;6215000;23;20162;-89
2023/02/06 01:11:36;;;;;;;12.80;5.37;;;;;;;;;;6213534;23;20287;-89
2023/02/06 01:14:41;;;;;;;12.07;5.67;;;;;;;;;;6214174;23;20179;-88
2023/02/06 01:17:53;;;;;;;21.10;6.63;;;;;;;;;;6214915;23;20171;-90
2023/02/06 01:20:58;;;;;;;13.90;6.13;;;;;;;;;;6212483;23;20151;-91
2023/02/06 01:24:05;;;;;;;12.70;5.37;;;;;;;;;;6213632;23;20190;-90
2023/02/06 01:27:10;;;;;;;20.83;5.27;;;;;;;;;;6213481;23;20221;-89
2023/02/06 01:30:15;;;;;;;11.73;5.20;;;;;;;;;;6212836;23;20170;-90
2023/02/06 01:33:21;;;;;;;10.47;4.47;;;;;;;;;;6213511;23;20234;-89
2023/02/06 01:36:26;;;;;;;10.43;5.00;;;;;;;;;;6213698;23;20170;-89
2023/02/06 01:39:33;;;;;;;10.80;5.07;;;;;;;;;;6214228;23;20206;-90
2023/02/06 01:42:39;;;;;;;10.10;4.83;;;;;;;;;;6214246;23;20214;-89
2023/02/06 01:45:46;;;;;;;14.63;5.60;;;;;;;;;;6214255;23;20199;-90
2023/02/06 01:48:52;;;;;;;10.90;5.10;;;;;;;;;;6212977;23;20198;-89
2023/02/06 01:52:00;;;;;;;11.80;5.40;;;;;;;;;;6214638;23;20175;-89
2023/02/06 01:55:08;;;;;;;10.83;4.80;;;;;;;;;;6232889;23;20194;-89
2023/02/06 01:58:16;;;;;;;11.30;5.20;;;;;;;;;;6213836;23;20247;-90
2023/02/06 02:01:23;;;;;;;11.87;4.47;;;;;;;;;;6214467;23;20154;-90
2023/02/06 02:04:29;;;;;;;12.00;5.00;;;;;;;;;;6214944;23;20239;-88
2023/02/06 02:07:36;;;;;;;8.03;3.83;;;;;;;;;;6214551;23;20499;-89
2023/02/06 02:10:43;;;;;;;12.07;5.57;;;;;;;;;;6215288;23;20171;-92
2023/02/06 02:13:48;;;;;;;11.67;4.73;;;;;;;;;;6213372;23;20163;-89
2023/02/06 02:16:59;;;;;;;13.87;5.67;;;;;;;;;;6214617;23;20154;-88
2023/02/06 02:20:30;;;;;;;13.77;5.67;;;;;;;;;;6213500;23;20224;-90
2023/02/06 02:23:39;;;;;;;16.27;5.73;;;;;;;;;;6215168;23;20155;-90
2023/02/06 02:27:00;;;;;;;13.60;5.03;;;;;;;;;;6213378;23;20208;-89
2023/02/06 02:30:25;;;;;;;12.53;5.67;;;;;;;;;;6215648;23;20191;-88
2023/02/06 02:33:50;;;;;;;11.23;5.87;;;;;;;;;;6215133;23;20239;-88
2023/02/06 02:37:01;;;;;;;11.57;5.40;;;;;;;;;;6215667;23;20171;-91
2023/02/06 02:40:10;;;;;;;8.47;4.30;;;;;;;;;;6216493;23;20188;-90
2023/02/06 02:43:19;;;;;;;11.83;4.73;;;;;;;;;;6217282;23;20207;-87
2023/02/06 02:46:29;;;;;;;13.43;5.03;;;;;;;;;;6216471;23;20163;-87
2023/02/06 02:49:38;;;;;;;8.90;5.00;;;;;;;;;;6216395;23;20191;-90
2023/02/06 02:52:45;;;;;;;9.93;4.23;;;;;;;;;;6215817;23;20175;-88
2023/02/06 02:55:51;;;;;;;11.17;5.10;;;;;;;;;;6215075;23;20187;-89
2023/02/06 02:58:59;;;;;;;13.87;5.53;;;;;;;;;;6215077;23;20150;-90
2023/02/06 03:02:08;;;;;;;11.97;4.07;;;;;;;;;;6214065;23;20228;-89
2023/02/06 03:05:15;;;;;;;9.03;4.47;;;;;;;;;;6214512;23;20218;-88
2023/02/06 03:08:28;;;;;;;14.07;4.43;;;;;;;;;;6213455;23;20167;-88
2023/02/06 03:11:39;;;;;;;10.27;4.33;;;;;;;;;;6214268;23;20163;-88
2023/02/06 03:14:46;;;;;;;9.43;4.23;;;;;;;;;;6215628;23;20167;-88
2023/02/06 03:17:55;;;;;;;8.40;3.77;;;;;;;;;;6213273;23;20168;-89
2023/02/06 03:21:02;;;;;;;9.87;4.30;;;;;;;;;;6216002;23;20156;-90
2023/02/06 03:24:10;;;;;;;13.53;5.43;;;;;;;;;;6216216;23;20550;-88
2023/02/06 03:27:16;;;;;;;12.17;5.10;;;;;;;;;;6214856;23;20175;-88
2023/02/06 03:30:23;;;;;;;12.67;5.87;;;;;;;;;;6216650;23;20211;-89
2023/02/06 03:33:29;;;;;;;13.27;5.37;;;;;;;;;;6216121;23;20218;-89
2023/02/06 03:36:35;;;;;;;13.43;5.27;;;;;;;;;;6216661;23;20175;-88
2023/02/06 03:39:41;;;;;;;14.37;5.73;;;;;;;;;;6234565;23;20166;-89
2023/02/06 03:42:49;;;;;;;14.00;5.50;;;;;;;;;;6215355;23;20160;-88
2023/02/06 03:45:58;;;;;;;12.83;5.20;;;;;;;;;;6217047;23;20270;-88
2023/02/06 03:49:07;;;;;;;10.87;5.40;;;;;;;;;;6216261;23;20222;-89
2023/02/06 03:52:14;;;;;;;13.40;5.40;;;;;;;;;;6216075;23;20162;-89
2023/02/06 03:55:22;;;;;;;12.63;5.37;;;;;;;;;;6215687;23;20505;-88
2023/02/06 03:58:27;;;;;;;10.90;4.90;;;;;;;;;;6214947;23;20224;-89
2023/02/06 04:01:33;;;;;;;13.27;5.83;;;;;;;;;;6216501;23;20170;-89
2023/02/06 04:04:39;;;;;;;11.47;5.67;;;;;;;;;;6215727;23;20528;-88
2023/02/06 04:07:45;;;;;;;16.57;5.77;;;;;;;;;;6214967;23;20214;-88
2023/02/06 04:10:51;;;;;;;12.73;5.60;;;;;;;;;;6215855;23;20591;-89
2023/02/06 04:13:57;;;;;;;11.47;5.23;;;;;;;;;;6215957;23;20179;-87
2023/02/06 04:17:02;;;;;;;12.13;5.30;;;;;;;;;;6215505;23;20203;-89
2023/02/06 04:20:12;;;;;;;10.83;4.57;;;;;;;;;;6214602;23;20183;-90
2023/02/06 04:23:17;;;;;;;9.17;4.17;;;;;;;;;;6216465;23;20187;-89
2023/02/06 04:26:24;;;;;;;11.97;5.47;;;;;;;;;;6215056;23;20195;-87
2023/02/06 04:29:30;;;;;;;13.87;5.10;;;;;;;;;;6215609;23;20212;-89
2023/02/06 04:32:35;;;;;;;13.33;5.10;;;;;;;;;;6215237;23;20191;-88
2023/02/06 04:35:40;;;;;;;11.17;5.07;;;;;;;;;;6216616;23;20155;-87
2023/02/06 04:38:45;;;;;;;11.00;5.27;;;;;;;;;;6215493;23;20186;-87
2023/02/06 04:41:52;;;;;;;12.20;5.23;;;;;;;;;;6214834;23;20171;-90
2023/02/06 04:44:57;;;;;;;10.33;5.20;;;;;;;;;;6216092;23;20254;-89
2023/02/06 04:48:02;;;;;;;14.37;6.10;;;;;;;;;;6216876;23;20172;-90
2023/02/06 04:51:07;;;;;;;9.93;4.97;;;;;;;;;;6216542;23;20175;-87
2023/02/06 04:54:16;;;;;;;13.80;5.37;;;;;;;;;;6215936;23;20175;-87
2023/02/06 04:57:23;;;;;;;15.50;5.63;;;;;;;;;;6214573;23;20262;-87
2023/02/06 05:00:30;;;;;;;12.40;5.50;;;;;;;;;;6213969;23;20183;-88
2023/02/06 05:03:35;;;;;;;13.17;5.43;;;;;;;;;;6217316;23;20170;-88
2023/02/06 05:06:40;;;;;;;18.03;5.83;;;;;;;;;;6216427;23;20175;-87
2023/02/06 05:09:45;;;;;;;13.87;5.40;;;;;;;;;;6215216;23;20242;-90
2023/02/06 05:12:52;;;;;;;15.77;6.37;;;;;;;;;;6216566;23;20151;-88
2023/02/06 05:16:00;;;;;;;13.13;5.17;;;;;;;;;;6217743;23;20163;-89
2023/02/06 05:19:05;;;;;;;14.17;5.87;;;;;;;;;;6215058;23;20220;-87
2023/02/06 05:22:11;;;;;;;11.77;5.43;;;;;;;;;;6214688;23;20189;-88
2023/02/06 05:25:17;;;;;;;12.20;5.20;;;;;;;;;;6215477;23;20263;-88
2023/02/06 05:28:24;;;;;;;12.87;5.20;;;;;;;;;;6213968;23;20167;-89
2023/02/06 05:31:33;;;;;;;13.00;5.33;;;;;;;;;;6214825;23;20167;-88
2023/02/06 05:34:38;;;;;;;12.60;5.63;;;;;;;;;;6215550;23;20167;-89
2023/02/06 05:37:44;;;;;;;14.93;5.40;;;;;;;;;;6215369;23;20166;-89
2023/02/06 05:40:51;;;;;;;10.77;5.10;;;;;;;;;;6215839;23;20175;-88
2023/02/06 05:43:57;;;;;;;12.93;5.73;;;;;;;;;;6213415;23;20163;-90
2023/02/06 05:47:02;;;;;;;13.87;5.40;;;;;;;;;;6215989;23;20215;-90
2023/02/06 05:50:15;;;;;;;14.33;5.87;;;;;;;;;;6215156;23;20194;-89
2023/02/06 05:53:21;;;;;;;18.53;5.97;;;;;;;;;;6215560;23;20251;-89
2023/02/06 05:56:26;;;;;;;16.63;6.13;;;;;;;;;;6214570;23;20190;-91
2023/02/06 05:59:32;;;;;;;12.53;5.43;;;;;;;;;;6214941;23;20150;-91
2023/02/06 06:03:02;;;;;;;15.47;6.03;;;;;;;;;;6215003;23;20214;-89
2023/02/06 06:06:08;;;;;;;12.13;5.50;;;;;;;;;;6213549;23;20199;-89
2023/02/06 06:09:14;;;;;;;17.23;5.80;;;;;;;;;;6214610;23;20206;-89
2023/02/06 06:12:19;;;;;;;11.87;4.87;;;;;;;;;;6215452;23;20163;-90
2023/02/06 06:15:26;;;;;;;14.90;5.40;;;;;;;;;;6214751;23;20179;-88
2023/02/06 06:18:31;;;;;;;13.60;6.47;;;;;;;;;;6215266;23;20174;-89
2023/02/06 06:21:40;;;;;;;13.27;5.13;;;;;;;;;;6217645;23;20151;-89
2023/02/06 06:24:45;;;;;;;9.90;5.37;;;;;;;;;;6216014;23;20147;-89
2023/02/06 06:27:52;;;;;;;14.10;5.37;;;;;;;;;;6215266;23;20167;-88
2023/02/06 06:31:02;;;;;;;13.37;5.53;;;;;;;;;;6215012;23;20179;-88
2023/02/06 06:34:08;;;;;;;11.60;5.20;;;;;;;;;;6214741;23;20195;-90
2023/02/06 06:37:13;;;;;;;14.07;5.73;;;;;;;;;;6215872;23;20206;-89
2023/02/06 06:40:18;;;;;;;10.40;5.23;;;;;;;;;;6216796;23;20179;-88
2023/02/06 06:43:24;;;;;;;12.63;6.03;;;;;;;;;;6213562;23;20166;-89
2023/02/06 06:46:30;;;;;;;13.93;6.33;;;;;;;;;;6213906;23;20269;-91
2023/02/06 06:49:36;;;;;;;15.60;6.57;;;;;;;;;;6214217;23;20200;-87
2023/02/06 06:52:41;;;;;;;13.53;6.33;;;;;;;;;;6214812;23;20228;-90
2023/02/06 06:55:46;;;;;;;15.13;6.43;;;;;;;;;;6215354;23;20506;-88
2023/02/06 06:58:51;;;;;;;12.17;5.83;;;;;;;;;;6214570;23;20239;-91
2023/02/06 07:02:04;;;;;;;15.70;6.27;;;;;;;;;;6214137;23;20186;-90
2023/02/06 07:05:09;;;;;;;15.10;6.50;;;;;;;;;;6214221;23;20253;-88
2023/02/06 07:08:14;;;;;;;16.20;5.93;;;;;;;;;;6217212;23;20179;-89
2023/02/06 07:11:19;;;;;;;12.80;6.07;;;;;;;;;;6217056;23;20242;-88
2023/02/06 07:14:25;;;;;;;14.17;6.33;;;;;;;;;;6215581;23;20215;-88
2023/02/06 07:17:43;;;;;;;35.53;10.47;;;;;;;;;;6216028;23;20178;-90
2023/02/06 07:20:50;;;;;;;13.83;5.67;;;;;;;;;;6233523;23;20179;-88
2023/02/06 07:23:55;;;;;;;15.90;6.23;;;;;;;;;;6217680;23;20283;-88
2023/02/06 07:27:00;;;;;;;19.87;5.87;;;;;;;;;;6217870;23;20194;-87
2023/02/06 07:30:06;;;;;;;16.27;6.33;;;;;;;;;;6215721;23;20263;-90
2023/02/06 07:33:15;;;;;;;16.07;6.17;;;;;;;;;;6216143;23;20171;-87
2023/02/06 07:36:24;;;;;;;15.00;6.67;;;;;;;;;;6216425;23;20187;-90
2023/02/06 07:39:29;;;;;;;14.60;5.80;;;;;;;;;;6217672;23;20155;-88
2023/02/06 07:42:35;;;;;;;14.27;5.20;;;;;;;;;;6217041;23;20210;-89
2023/02/06 07:45:51;;;;;;;13.80;6.10;;;;;;;;;;6217168;23;20199;-89
2023/02/06 07:48:58;;;;;;;15.77;6.77;;;;;;;;;;6217348;23;20236;-89
2023/02/06 07:52:03;;;;;;;13.50;5.67;;;;;;;;;;6217045;23;20167;-89
2023/02/06 07:55:09;;;;;;;16.23;6.67;;;;;;;;;;6216022;23;20163;-91
2023/02/06 07:58:15;;;;;;;37.50;13.63;;;;;;;;;;6215541;23;20166;-89
2023/02/06 08:01:21;;;;;;;16.07;5.60;;;;;;;;;;6231805;23;20170;-88
2023/02/06 08:04:33;;;;;;;71.67;24.37;;;;;;;;;;6215574;23;20167;-91
2023/02/06 08:07:40;;;;;;;17.07;5.90;;;;;;;;;;6232584;23;20171;-90
2023/02/06 08:10:45;;;;;;;12.30;5.50;;;;;;;;;;6214701;23;20174;-89
2023/02/06 08:13:51;;;;;;;17.97;7.27;;;;;;;;;;6214755;23;20241;-89
2023/02/06 08:16:57;;;;;;;23.03;7.97;;;;;;;;;;6214021;23;20171;-88
2023/02/06 08:20:05;;;;;;;13.37;6.10;;;;;;;;;;6214605;23;20167;-89
2023/02/06 08:23:12;;;;;;;18.63;5.33;;;;;;;;;;6215209;23;20171;-88
2023/02/06 08:26:20;;;;;;;14.97;4.93;;;;;;;;;;6214733;23;20210;-89
2023/02/06 08:29:26;;;;;;;10.90;4.10;;;;;;;;;;6214450;23;20171;-90
2023/02/06 08:32:33;;;;;;;8.10;3.43;;;;;;;;;;6213936;23;20171;-91
2023/02/06 15:38:08;;;;;;;24.67;7.80;;;;;;;;;;6157883;23;20208;-90
2023/02/06 15:41:14;;;;;;;15.77;6.50;;;;;;;;;;6204128;23;20196;-88
2023/02/06 15:44:25;;;;;;;19.50;6.73;;;;;;;;;;6203432;23;20164;-90
2023/02/06 15:47:31;;;;;;;13.83;5.00;;;;;;;;;;6203238;23;20231;-89
2023/02/06 15:50:36;;;;;;;17.63;6.40;;;;;;;;;;6204652;23;20591;-89
2023/02/06 15:53:49;;;;;;;17.90;6.37;;;;;;;;;;6207093;23;20253;-91
2023/02/06 15:56:59;;;;;;;23.43;8.50;;;;;;;;;;6204723;23;20203;-91
2023/02/06 16:00:24;;;;;;;14.03;6.57;;;;;;;;;;6204321;23;20164;-89
2023/02/06 16:03:34;;;;;;;20.53;6.57;;;;;;;;;;6204989;23;20184;-87
2023/02/06 16:06:40;;;;;;;16.13;6.07;;;;;;;;;;6204462;23;20686;-86
2023/02/06 16:09:53;;;;;;;15.60;5.63;;;;;;;;;;6205506;23;20229;-87
2023/02/06 16:13:00;;;;;;;17.33;5.67;;;;;;;;;;6206233;23;20171;-86
2023/02/06 16:16:10;;;;;;;21.97;7.23;;;;;;;;;;6204220;23;20630;-92
2023/02/06 16:19:39;;;;;;;22.57;6.80;;;;;;;;;;6205837;23;20164;-88
2023/02/06 16:22:46;;;;;;;14.00;5.73;;;;;;;;;;6205346;23;20192;-90
2023/02/06 16:26:04;;;;;;;23.83;7.83;;;;;;;;;;6210180;23;20168;-87
2023/02/06 16:29:28;;;;;;;21.97;8.90;;;;;;;;;;6208102;23;20215;-89
2023/02/06 16:32:34;;;;;;;15.83;6.13;;;;;;;;;;6208252;23;20219;-88
2023/02/06 16:35:40;;;;;;;16.90;6.43;;;;;;;;;;6205251;23;20172;-90
2023/02/06 16:38:48;;;;;;;23.13;5.40;;;;;;;;;;6205685;23;20285;-90
2023/02/06 16:41:56;;;;;;;13.93;5.80;;;;;;;;;;6206629;23;20240;-89
2023/02/06 16:45:02;;;;;;;11.63;5.57;;;;;;;;;;6202875;23;20467;-88
2023/02/06 16:48:16;;;;;;;17.37;6.90;;;;;;;;;;6203143;23;20227;-89
2023/02/06 16:51:23;;;;;;;31.80;10.37;;;;;;;;;;6187104;23;20167;-89
2023/02/06 16:54:29;;;;;;;12.93;5.27;;;;;;;;;;6204090;23;20243;-91
2023/02/06 16:57:40;;;;;;;20.67;7.20;;;;;;;;;;6204680;23;20147;-89
2023/02/06 17:01:16;;;;;;;26.07;8.00;;;;;;;;;;6202366;23;20172;-89
2023/02/06 17:04:21;;;;;;;16.80;7.00;;;;;;;;;;6204975;23;20207;-89
2023/02/06 17:07:27;;;;;;;17.73;6.80;;;;;;;;;;6206274;23;20291;-89
2023/02/06 17:10:32;;;;;;;17.13;7.07;;;;;;;;;;6205157;23;20167;-90
2023/02/06 17:13:40;;;;;;;25.17;9.43;;;;;;;;;;6204112;23;20175;-87
2023/02/06 17:16:46;;;;;;;28.00;10.37;;;;;;;;;;6202765;23;20159;-90
2023/02/06 17:20:01;;;;;;;36.90;11.30;;;;;;;;;;6204309;23;20148;-88
2023/02/06 17:23:06;;;;;;;33.20;12.13;;;;;;;;;;6205113;23;20163;-90
2023/02/06 17:26:13;;;;;;;23.07;9.90;;;;;;;;;;6205683;23;20167;-90
2023/02/06 17:29:20;;;;;;;20.10;8.13;;;;;;;;;;6186535;23;20171;-88
2023/02/06 17:32:26;;;;;;;20.40;8.57;;;;;;;;;;6202522;23;20155;-88
2023/02/06 17:35:32;;;;;;;28.63;7.93;;;;;;;;;;6203102;23;20155;-89
2023/02/06 17:38:38;;;;;;;18.93;7.60;;;;;;;;;;6203438;23;20206;-89
2023/02/06 17:41:45;;;;;;;17.63;7.87;;;;;;;;;;6203900;23;20168;-88
2023/02/06 17:44:52;;;;;;;17.77;7.97;;;;;;;;;;6201578;23;20183;-91
2023/02/06 17:47:59;;;;;;;56.07;14.57;;;;;;;;;;6200925;23;20188;-88
2023/02/06 17:51:06;;;;;;;40.20;13.90;;;;;;;;;;6204294;23;20195;-90
2023/02/06 17:54:12;;;;;;;34.60;11.57;;;;;;;;;;6202817;23;20164;-88
2023/02/06 17:57:18;;;;;;;23.53;8.97;;;;;;;;;;6202534;23;20552;-88
2023/02/06 18:00:26;;;;;;;29.27;9.77;;;;;;;;;;6200838;23;20167;-90
2023/02/06 18:03:31;;;;;;;25.97;9.10;;;;;;;;;;6201950;23;20176;-88
2023/02/06 18:06:37;;;;;;;20.93;9.30;;;;;;;;;;6205645;23;20191;-88
2023/02/06 18:09:42;;;;;;;21.93;8.37;;;;;;;;;;6204042;23;20196;-88
2023/02/06 18:12:48;;;;;;;22.43;9.87;;;;;;;;;;6204939;23;20172;-89
2023/02/06 18:15:56;;;;;;;30.20;12.00;;;;;;;;;;6204304;23;20188;-89
2023/02/06 18:19:42;;;;;;;24.93;11.33;;;;;;;;;;6204423;23;20201;-88
2023/02/06 18:22:48;;;;;;;26.47;9.73;;;;;;;;;;6208667;23;20195;-90
2023/02/06 18:25:58;;;;;;;26.10;9.67;;;;;;;;;;6204398;23;20211;-90
2023/02/06 18:29:04;;;;;;;23.63;9.37;;;;;;;;;;6203457;23;20200;-91
2023/02/06 18:32:13;;;;;;;19.07;8.17;;;;;;;;;;6205217;23;20171;-89
2023/02/06 18:35:19;;;;;;;18.80;7.90;;;;;;;;;;6203783;23;20208;-89
2023/02/06 18:38:25;;;;;;;25.87;9.07;;;;;;;;;;6205060;23;20233;-89
2023/02/06 18:44:55;;;;;;;24.80;9.53;;;;;;;;;;6205075;23;20188;-89
2023/02/06 18:48:02;;;;;;;21.87;9.13;;;;;;;;;;6204420;23;20195;-89
2023/02/06 18:51:08;;;;;;;21.40;7.70;;;;;;;;;;6205635;23;20155;-88
2023/02/06 18:54:13;;;;;;;17.93;8.13;;;;;;;;;;6203367;23;20167;-89
2023/02/06 18:57:19;;;;;;;20.70;9.37;;;;;;;;;;6205058;23;20228;-87
2023/02/06 19:00:49;;;;;;;24.43;9.73;;;;;;;;;;6202968;23;20168;-89
2023/02/06 19:03:58;;;;;;;28.90;10.50;;;;;;;;;;6204233;23;20152;-90
2023/02/06 19:07:24;;;;;;;26.10;10.60;;;;;;;;;;6203699;23;20202;-89
2023/02/06 19:10:30;;;;;;;21.83;9.33;;;;;;;;;;6204772;23;20204;-90
2023/02/06 19:13:45;;;;;;;23.27;9.63;;;;;;;;;;6206790;23;20159;-88
2023/02/06 19:16:57;;;;;;;20.87;8.33;;;;;;;;;;6206082;23;20159;-89
2023/02/06 19:20:05;;;;;;;19.87;8.23;;;;;;;;;;6203528;23;20192;-89
2023/02/06 19:23:10;;;;;;;22.20;9.50;;;;;;;;;;6203712;23;20171;-91
2023/02/06 19:26:17;;;;;;;23.87;9.03;;;;;;;;;;6203092;23;20191;-88
2023/02/06 19:29:23;;;;;;;20.40;8.30;;;;;;;;;;6204134;23;20221;-89
2023/02/06 19:32:31;;;;;;;20.20;7.97;;;;;;;;;;6204819;23;20204;-90
2023/02/06 19:35:40;;;;;;;21.27;8.90;;;;;;;;;;6206911;23;20152;-90
2023/02/06 19:38:45;;;;;;;21.60;8.53;;;;;;;;;;6204786;23;20236;-91
2023/02/06 19:41:51;;;;;;;44.53;16.93;;;;;;;;;;6203319;23;20176;-90
2023/02/06 19:44:58;;;;;;;24.87;10.97;;;;;;;;;;6204017;23;20175;-91
2023/02/06 19:48:10;;;;;;;19.63;7.73;;;;;;;;;;6187932;23;20180;-90
2023/02/06 19:51:19;;;;;;;27.67;11.83;;;;;;;;;;6203843;23;20167;-89
2023/02/06 19:54:25;;;;;;;38.10;13.00;;;;;;;;;;6205737;23;20267;-89
2023/02/06 19:57:31;;;;;;;25.03;9.30;;;;;;;;;;6203184;23;20263;-89
2023/02/06 20:00:38;;;;;;;18.90;7.50;;;;;;;;;;6203704;23;20163;-88
2023/02/06 20:03:45;;;;;;;23.67;9.27;;;;;;;;;;6203246;23;20185;-90
2023/02/06 20:06:54;;;;;;;24.73;10.13;;;;;;;;;;6203705;23;20232;-91
2023/02/06 20:10:00;;;;;;;24.37;10.33;;;;;;;;;;6203839;23;20253;-89
2023/02/06 20:16:40;;;;;;;21.23;9.30;;;;;;;;;;6204552;23;20243;-88
2023/02/06 20:20:05;;;;;;;23.57;8.70;;;;;;;;;;6203507;23;20167;-88
2023/02/06 20:23:13;;;;;;;17.50;7.67;;;;;;;;;;6207440;23;20151;-89
2023/02/06 20:26:21;;;;;;;21.80;8.47;;;;;;;;;;6206359;23;20168;-90
2023/02/06 20:29:31;;;;;;;17.83;9.40;;;;;;;;;;6204375;23;20179;-88
2023/02/06 20:32:43;;;;;;;19.30;8.43;;;;;;;;;;6206770;23;20192;-87
2023/02/06 20:35:49;;;;;;;24.27;8.77;;;;;;;;;;6206514;23;20167;-89
2023/02/06 20:39:01;;;;;;;20.97;8.00;;;;;;;;;;6206182;23;20207;-88
2023/02/06 20:42:08;;;;;;;20.77;8.37;;;;;;;;;;6204763;23;20216;-89
2023/02/06 20:45:14;;;;;;;19.53;8.73;;;;;;;;;;6205663;23;20506;-88
2023/02/06 20:48:22;;;;;;;22.43;8.53;;;;;;;;;;6205117;23;20191;-88
2023/02/06 20:51:28;;;;;;;22.87;8.70;;;;;;;;;;6203071;23;20237;-89
2023/02/06 20:54:35;;;;;;;21.83;8.50;;;;;;;;;;6204131;23;20175;-89
2023/02/06 20:57:42;;;;;;;26.93;8.67;;;;;;;;;;6203847;23;20224;-87
2023/02/06 21:00:49;;;;;;;23.73;8.77;;;;;;;;;;6204099;23;20167;-89
2023/02/06 21:03:56;;;;;;;19.63;7.57;;;;;;;;;;6205942;23;20247;-92
2023/02/06 21:07:03;;;;;;;21.20;8.90;;;;;;;;;;6205623;23;20167;-90
2023/02/06 21:10:12;;;;;;;20.60;8.60;;;;;;;;;;6210598;23;20167;-88
2023/02/06 21:13:19;;;;;;;21.97;8.93;;;;;;;;;;6211210;23;20223;-89
